Time;durP1;ratioP1;P1;durP2;ratioP2;P2;SDS_P1;SDS_P2;PMS_P1;PMS_P2;Temp;Humidity;BMP_temperature;BMP_pressure;BME280_temperature;BME280_humidity;BME280_pressure;Samples;Min_cycle;Max_cycle;Signal;HPM_P1;HPM_P2
2023/10/27 00:01:05;;;;;;;7.97;1.50;;;13.50;99.90;;;;;;5107467;28;20027;-68
2023/10/27 00:03:30;;;;;;;3.10;1.20;;;13.60;99.90;;;;;;5106976;28;20035;-69
2023/10/27 00:05:56;;;;;;;2.23;1.30;;;13.50;99.90;;;;;;5106863;28;20035;-68
2023/10/27 00:08:22;;;;;;;2.57;1.00;;;13.50;99.90;;;;;;5106477;28;20036;-70
2023/10/27 00:10:47;;;;;;;3.83;1.00;;;13.50;99.90;;;;;;5107000;28;20042;-68
2023/10/27 00:13:13;;;;;;;1.20;0.90;;;13.40;99.90;;;;;;5107291;28;20475;-68
2023/10/27 00:15:38;;;;;;;2.47;1.33;;;13.40;99.90;;;;;;5107696;28;20028;-68
2023/10/27 00:18:04;;;;;;;0.87;0.70;;;13.40;99.90;;;;;;5107206;28;20023;-67
2023/10/27 00:20:30;;;;;;;1.13;0.73;;;13.40;99.90;;;;;;5106955;28;20031;-67
2023/10/27 00:22:55;;;;;;;1.13;0.70;;;13.40;99.90;;;;;;5106187;28;20024;-66
2023/10/27 00:25:21;;;;;;;1.63;0.97;;;13.40;99.90;;;;;;5086716;28;20063;-67
2023/10/27 00:27:47;;;;;;;1.30;0.60;;;13.40;99.90;;;;;;5086117;28;20488;-67
2023/10/27 00:30:12;;;;;;;2.77;0.60;;;13.30;99.90;;;;;;5086204;28;20028;-70
2023/10/27 00:32:38;;;;;;;0.97;0.50;;;13.40;99.90;;;;;;5086949;28;20582;-71
2023/10/27 00:35:04;;;;;;;3.93;0.70;;;13.40;99.90;;;;;;5086812;28;20039;-70
2023/10/27 00:37:36;;;;;;;0.95;0.60;;;13.40;99.90;;;;;;5086556;28;20403;-72
2023/10/27 00:40:03;;;;;;;3.05;0.60;;;13.50;99.90;;;;;;5086463;28;20036;-71
2023/10/27 00:42:29;;;;;;;0.77;0.57;;;13.40;99.90;;;;;;5087274;28;20024;-71
2023/10/27 00:44:55;;;;;;;5.10;0.60;;;13.50;99.90;;;;;;5090075;28;20023;-71
2023/10/27 00:47:21;;;;;;;7.33;0.77;;;13.50;99.90;;;;;;5089869;28;20028;-71
2023/10/27 00:49:47;;;;;;;0.90;0.50;;;13.50;99.90;;;;;;5090487;28;20642;-72
2023/10/27 00:52:13;;;;;;;4.68;0.60;;;13.60;99.90;;;;;;5090439;28;20028;-67
2023/10/27 00:54:40;;;;;;;3.28;0.60;;;13.50;99.90;;;;;;5090449;28;20043;-72
2023/10/27 00:57:06;;;;;;;3.30;0.68;;;13.50;99.90;;;;;;5090130;28;20025;-67
2023/10/27 00:59:32;;;;;;;1.40;0.50;;;13.60;99.90;;;;;;5089999;28;20116;-71
2023/10/27 01:01:58;;;;;;;4.43;0.70;;;13.50;99.90;;;;;;5089763;28;20544;-67
2023/10/27 01:04:27;;;;;;;4.40;0.60;;;13.50;99.90;;;;;;5089238;28;20496;-68
2023/10/27 01:06:53;;;;;;;0.65;0.50;;;13.50;99.90;;;;;;5089236;28;20039;-68
2023/10/27 01:09:19;;;;;;;0.90;0.70;;;13.50;99.90;;;;;;5089233;28;20051;-70
2023/10/27 01:11:45;;;;;;;1.65;0.70;;;13.40;99.90;;;;;;5088095;28;20407;-69
2023/10/27 01:14:11;;;;;;;2.15;0.60;;;13.60;99.90;;;;;;5089388;28;20039;-67
2023/10/27 01:16:37;;;;;;;8.18;0.90;;;13.50;99.90;;;;;;5089581;28;20024;-67
2023/10/27 01:19:03;;;;;;;0.73;0.47;;;13.60;99.90;;;;;;5089998;28;20034;-68
2023/10/27 01:21:28;;;;;;;3.87;0.40;;;13.60;99.90;;;;;;5089397;28;20789;-72
2023/10/27 01:23:54;;;;;;;1.03;0.30;;;13.70;99.90;;;;;;5088284;28;20054;-67
2023/10/27 01:26:19;;;;;;;0.77;0.50;;;13.60;99.90;;;;;;5089642;28;20031;-69
2023/10/27 01:28:45;;;;;;;0.77;0.50;;;13.70;99.90;;;;;;5089583;28;20040;-67
2023/10/27 01:31:11;;;;;;;1.10;0.40;;;13.70;99.90;;;;;;5090332;28;20381;-66
2023/10/27 01:33:38;;;;;;;2.30;0.70;;;13.70;99.90;;;;;;5089637;28;20027;-67
2023/10/27 01:36:04;;;;;;;1.33;0.60;;;13.70;99.90;;;;;;5089416;28;20020;-66
2023/10/27 01:38:29;;;;;;;1.23;0.55;;;13.60;99.90;;;;;;5089365;28;20056;-67
2023/10/27 01:40:55;;;;;;;0.37;0.37;;;13.60;99.90;;;;;;5089405;28;20032;-69
2023/10/27 01:43:21;;;;;;;0.60;0.50;;;13.60;99.90;;;;;;5089059;28;20047;-70
2023/10/27 01:45:46;;;;;;;0.67;0.47;;;13.60;99.90;;;;;;5088511;28;20026;-67
2023/10/27 01:48:12;;;;;;;1.90;0.60;;;13.50;99.90;;;;;;5089029;28;20109;-66
2023/10/27 01:50:37;;;;;;;1.23;0.80;;;13.60;99.90;;;;;;5102642;28;20050;-68
2023/10/27 01:53:03;;;;;;;1.47;0.50;;;13.60;99.90;;;;;;5108701;28;20032;-71
2023/10/27 01:55:29;;;;;;;0.77;0.67;;;13.50;99.90;;;;;;5108870;28;20483;-67
2023/10/27 01:57:54;;;;;;;4.20;0.70;;;13.50;99.90;;;;;;5108817;28;20061;-67
2023/10/27 02:00:20;;;;;;;2.73;0.90;;;13.40;99.90;;;;;;5109204;28;20479;-67
2023/10/27 02:02:46;;;;;;;1.37;0.60;;;13.30;99.90;;;;;;5109181;28;20107;-69
2023/10/27 02:05:12;;;;;;;1.33;0.82;;;13.30;99.90;;;;;;5108888;28;20027;-69
2023/10/27 02:07:38;;;;;;;3.57;0.90;;;13.30;99.90;;;;;;5108923;28;20040;-72
2023/10/27 02:10:04;;;;;;;1.07;0.60;;;13.20;99.90;;;;;;5108931;28;20039;-72
2023/10/27 02:12:30;;;;;;;;;;;13.20;99.90;;;;;;5109248;28;20028;-70
2023/10/27 02:14:55;;;;;;;2.35;0.93;;;13.30;99.90;;;;;;5108762;28;20442;-72
2023/10/27 02:17:21;;;;;;;2.20;0.73;;;13.40;99.90;;;;;;5108961;28;20452;-69
2023/10/27 02:19:54;;;;;;;2.40;0.70;;;13.30;99.90;;;;;;5108681;28;20032;-71
2023/10/27 02:22:20;;;;;;;0.80;0.60;;;13.30;99.90;;;;;;5093250;28;20070;-72
2023/10/27 02:24:45;;;;;;;4.17;0.70;;;13.20;99.90;;;;;;5088480;28;20081;-71
2023/10/27 02:27:11;;;;;;;4.03;0.83;;;13.10;99.90;;;;;;5088002;28;20046;-68
2023/10/27 02:29:37;;;;;;;3.40;0.75;;;13.00;99.90;;;;;;5086241;28;20539;-67
2023/10/27 02:32:03;;;;;;;2.20;0.80;;;12.90;99.90;;;;;;5087876;28;20149;-68
2023/10/27 02:34:28;;;;;;;2.85;0.57;;;12.90;99.90;;;;;;5088089;28;20343;-67
2023/10/27 02:36:54;;;;;;;2.27;0.60;;;12.90;99.90;;;;;;5088018;28;20032;-71
2023/10/27 02:39:19;;;;;;;1.43;0.50;;;12.80;99.90;;;;;;5087611;28;20039;-71
2023/10/27 02:41:45;;;;;;;2.10;0.90;;;12.80;99.90;;;;;;5088119;28;20031;-72
2023/10/27 02:44:11;;;;;;;1.63;0.50;;;12.80;99.90;;;;;;5087751;28;20484;-69
2023/10/27 02:46:37;;;;;;;4.93;0.93;;;12.70;99.90;;;;;;5087854;28;20407;-68
2023/10/27 02:49:03;;;;;;;2.03;0.80;;;12.70;99.90;;;;;;5087273;28;20040;-68
2023/10/27 02:51:29;;;;;;;4.25;0.77;;;12.80;99.90;;;;;;5087722;28;20266;-68
2023/10/27 02:53:55;;;;;;;1.15;0.57;;;12.80;99.90;;;;;;5088051;28;20028;-71
2023/10/27 02:56:21;;;;;;;1.65;0.57;;;12.80;99.90;;;;;;5087731;28;20503;-71
2023/10/27 02:58:47;;;;;;;2.75;1.00;;;12.80;99.90;;;;;;5087954;28;20113;-69
2023/10/27 03:01:15;;;;;;;2.47;1.00;;;12.70;99.90;;;;;;5087649;28;20197;-70
2023/10/27 03:03:42;;;;;;;1.10;0.80;;;12.60;99.90;;;;;;5088075;28;20024;-71
2023/10/27 03:06:08;;;;;;;7.50;1.58;;;12.50;99.90;;;;;;5086647;28;20105;-70
2023/10/27 03:08:34;;;;;;;4.17;0.80;;;12.40;99.90;;;;;;5087342;28;20495;-68
2023/10/27 03:11:00;;;;;;;5.00;1.27;;;12.20;99.90;;;;;;5087142;28;20077;-67
2023/10/27 03:13:30;;;;;;;8.52;0.95;;;12.10;99.90;;;;;;5087189;28;20451;-67
2023/10/27 03:15:58;;;;;;;2.67;0.70;;;12.00;99.90;;;;;;5087067;28;20468;-67
2023/10/27 03:18:23;;;;;;;3.45;1.00;;;11.80;99.90;;;;;;5087129;28;20028;-67
2023/10/27 03:21:00;;;;;;;13.40;1.35;;;11.80;99.90;;;;;;5087237;28;20902;-67
2023/10/27 03:23:27;;;;;;;4.95;1.20;;;11.70;99.90;;;;;;5087028;28;20028;-68
2023/10/27 03:25:53;;;;;;;7.03;1.40;;;11.70;99.90;;;;;;5087349;28;20515;-67
2023/10/27 03:28:22;;;;;;;3.28;1.13;;;11.60;99.90;;;;;;5087601;28;20051;-67
2023/10/27 03:30:48;;;;;;;2.92;1.58;;;11.50;99.90;;;;;;5087468;28;20032;-66
2023/10/27 03:33:14;;;;;;;4.15;1.60;;;11.50;99.90;;;;;;5087689;28;20101;-67
2023/10/27 03:35:42;;;;;;;2.08;1.17;;;11.70;99.90;;;;;;5087454;28;20837;-68
2023/10/27 03:38:09;;;;;;;3.63;1.02;;;11.80;99.90;;;;;;5087307;28;20043;-66
2023/10/27 03:40:35;;;;;;;;;;;11.80;99.90;;;;;;5091357;28;20047;-68
2023/10/27 03:43:01;;;;;;;2.88;1.10;;;11.70;99.90;;;;;;5107375;28;19935;-67
2023/10/27 03:45:26;;;;;;;3.43;0.83;;;11.70;99.90;;;;;;5107159;28;20094;-67
2023/10/27 03:47:52;;;;;;;1.40;1.00;;;11.60;99.90;;;;;;5107521;28;20164;-68
2023/10/27 03:50:17;;;;;;;5.03;1.13;;;11.60;99.90;;;;;;5107776;28;20027;-70
2023/10/27 03:52:43;;;;;;;2.57;1.20;;;11.60;99.90;;;;;;5106909;28;20028;-72
2023/10/27 03:55:11;;;;;;;1.70;0.87;;;11.60;99.90;;;;;;5107241;28;20393;-71
2023/10/27 03:57:39;;;;;;;5.60;1.42;;;11.60;99.90;;;;;;5106968;28;20105;-70
2023/10/27 04:00:07;;;;;;;6.65;1.00;;;11.50;99.90;;;;;;5106682;28;20035;-71
2023/10/27 04:02:33;;;;;;;9.55;2.05;;;11.40;99.90;;;;;;5106759;28;20445;-70
2023/10/27 04:04:59;;;;;;;2.67;1.23;;;11.40;99.90;;;;;;5106766;28;20039;-67
2023/10/27 04:07:25;;;;;;;5.03;1.35;;;11.30;99.90;;;;;;5105649;28;20035;-66
2023/10/27 04:09:50;;;;;;;2.42;1.10;;;11.30;99.90;;;;;;5106288;28;20519;-67
2023/10/27 04:12:16;;;;;;;5.00;1.30;;;11.30;99.90;;;;;;5107377;28;20505;-66
2023/10/27 04:14:41;;;;;;;6.27;1.53;;;11.30;99.90;;;;;;5106695;28;20139;-66
2023/10/27 04:17:07;;;;;;;5.87;1.30;;;11.20;99.90;;;;;;5108869;28;20028;-66
2023/10/27 04:19:33;;;;;;;10.60;1.33;;;11.10;99.90;;;;;;5111123;28;20038;-68
2023/10/27 04:21:59;;;;;;;2.08;1.20;;;11.10;99.90;;;;;;5110903;28;20032;-67
2023/10/27 04:24:25;;;;;;;1.93;1.30;;;11.10;99.90;;;;;;5103458;28;20028;-67
2023/10/27 04:26:51;;;;;;;9.00;1.40;;;11.10;99.90;;;;;;5090743;28;20028;-66
2023/10/27 04:29:17;;;;;;;7.10;1.60;;;11.10;99.90;;;;;;5090245;28;20500;-66
2023/10/27 04:31:43;;;;;;;5.82;1.30;;;11.10;99.90;;;;;;5090153;28;20717;-66
2023/10/27 04:34:10;;;;;;;5.53;1.20;;;11.10;99.90;;;;;;5089714;28;20090;-67
2023/10/27 04:36:36;;;;;;;5.07;1.40;;;11.10;99.90;;;;;;5089848;28;20024;-67
2023/10/27 04:39:03;;;;;;;3.85;1.38;;;11.20;99.90;;;;;;5090023;28;20016;-66
2023/10/27 04:41:30;;;;;;;6.55;1.98;;;11.20;99.90;;;;;;5090263;28;20075;-67
2023/10/27 04:43:56;;;;;;;9.32;2.00;;;11.20;99.90;;;;;;5089746;28;20059;-70
2023/10/27 04:46:22;;;;;;;9.65;1.60;;;11.20;99.90;;;;;;5090211;28;20048;-67
2023/10/27 04:48:47;;;;;;;5.27;2.83;;;11.20;99.90;;;;;;5089209;28;20552;-71
2023/10/27 04:51:13;;;;;;;8.87;2.47;;;11.10;99.90;;;;;;5089697;28;20089;-67
2023/10/27 04:53:39;;;;;;;11.57;2.43;;;11.10;99.90;;;;;;5090087;28;20492;-71
2023/10/27 04:56:05;;;;;;;6.47;1.70;;;11.10;99.90;;;;;;5089912;28;20103;-72
2023/10/27 04:58:30;;;;;;;5.70;2.08;;;11.10;99.90;;;;;;5089938;28;20031;-71
2023/10/27 05:00:56;;;;;;;7.00;1.57;;;11.10;99.90;;;;;;5090147;28;20411;-71
2023/10/27 05:03:21;;;;;;;4.60;1.60;;;11.10;99.90;;;;;;5088692;28;20031;-71
2023/10/27 05:05:47;;;;;;;5.37;1.20;;;11.10;99.90;;;;;;5089763;28;20032;-70
2023/10/27 05:08:13;;;;;;;18.40;1.70;;;11.10;99.90;;;;;;5090009;28;20043;-72
2023/10/27 05:10:40;;;;;;;6.93;1.63;;;11.10;99.90;;;;;;5089963;28;20028;-69
2023/10/27 05:13:06;;;;;;;7.30;1.15;;;11.00;99.90;;;;;;5089632;28;20036;-68
2023/10/27 05:15:32;;;;;;;5.82;1.58;;;11.10;99.90;;;;;;5089827;28;20395;-71
2023/10/27 05:18:04;;;;;;;8.17;1.60;;;11.10;99.90;;;;;;5089332;28;20035;-72
2023/10/27 05:20:30;;;;;;;5.03;1.50;;;11.20;99.90;;;;;;5089260;28;20028;-70
2023/10/27 05:22:56;;;;;;;3.45;1.30;;;11.20;99.90;;;;;;5089142;28;20028;-71
2023/10/27 05:25:22;;;;;;;5.67;1.57;;;11.30;99.90;;;;;;5089781;28;20031;-71
2023/10/27 05:27:48;;;;;;;2.53;1.05;;;11.30;99.90;;;;;;5088643;28;20115;-71
2023/10/27 05:30:13;;;;;;;3.77;0.90;;;11.30;99.90;;;;;;5088672;28;20739;-69
2023/10/27 05:32:39;;;;;;;1.17;0.80;;;11.20;99.90;;;;;;5089214;28;20036;-72
2023/10/27 05:35:05;;;;;;;2.73;1.20;;;11.20;99.90;;;;;;5089426;28;20035;-69
2023/10/27 05:37:31;;;;;;;7.65;1.20;;;11.10;99.90;;;;;;5088899;28;20024;-71
2023/10/27 05:39:56;;;;;;;7.77;1.20;;;11.30;99.90;;;;;;5089254;28;20028;-71
2023/10/27 05:42:22;;;;;;;5.33;1.10;;;11.30;99.90;;;;;;5089852;28;20021;-67
2023/10/27 05:44:47;;;;;;;4.67;1.37;;;11.30;99.90;;;;;;5100002;28;20044;-67
2023/10/27 05:47:13;;;;;;;8.20;1.27;;;11.30;99.90;;;;;;5109604;28;20035;-68
2023/10/27 05:49:38;;;;;;;9.30;1.33;;;11.30;99.90;;;;;;5109525;28;20085;-66
2023/10/27 05:52:04;;;;;;;3.47;1.10;;;11.40;99.90;;;;;;5109084;28;20020;-67
2023/10/27 05:54:30;;;;;;;4.00;1.07;;;11.30;99.90;;;;;;5109107;28;20513;-67
2023/10/27 05:56:56;;;;;;;4.18;0.98;;;11.30;99.90;;;;;;5109166;28;20034;-69
2023/10/27 05:59:21;;;;;;;3.67;1.13;;;11.40;99.90;;;;;;5109102;28;20032;-68
2023/10/27 06:01:48;;;;;;;4.23;1.30;;;11.40;99.90;;;;;;5108755;28;20037;-71
2023/10/27 06:04:15;;;;;;;4.55;1.30;;;11.30;99.90;;;;;;5108572;28;20030;-68
2023/10/27 06:06:41;;;;;;;11.32;1.30;;;11.30;99.90;;;;;;5108919;28;20596;-67
2023/10/27 06:09:06;;;;;;;7.80;1.50;;;11.20;99.90;;;;;;5108708;28;20043;-70
2023/10/27 06:11:32;;;;;;;5.77;1.10;;;11.10;99.90;;;;;;5108434;28;20441;-67
2023/10/27 06:13:58;;;;;;;5.43;1.27;;;11.00;99.90;;;;;;5108582;28;20024;-67
2023/10/27 06:16:24;;;;;;;2.25;1.30;;;11.00;99.90;;;;;;5109103;28;20047;-67
2023/10/27 06:18:52;;;;;;;2.78;1.17;;;11.00;99.90;;;;;;5108735;28;20495;-67
2023/10/27 06:21:18;;;;;;;9.68;1.40;;;11.10;99.90;;;;;;5108334;28;20518;-70
2023/10/27 06:23:44;;;;;;;4.50;1.10;;;11.10;99.90;;;;;;5108694;28;20028;-67
2023/10/27 06:26:10;;;;;;;2.10;1.20;;;11.20;99.90;;;;;;5108724;28;20511;-68
2023/10/27 06:28:35;;;;;;;11.83;1.33;;;11.30;99.90;;;;;;5108290;28;20078;-67
2023/10/27 06:31:02;;;;;;;7.57;1.87;;;11.40;99.90;;;;;;5106982;28;20023;-66
2023/10/27 06:33:28;;;;;;;2.63;1.27;;;11.40;99.90;;;;;;5087626;28;20036;-68
2023/10/27 06:35:55;;;;;;;4.07;1.27;;;11.40;99.90;;;;;;5088416;28;20047;-67
2023/10/27 06:38:20;;;;;;;7.07;1.40;;;11.50;99.90;;;;;;5087627;28;20480;-67
2023/10/27 06:40:47;;;;;;;4.53;1.30;;;11.50;99.90;;;;;;5087585;28;20079;-67
2023/10/27 06:43:12;;;;;;;4.88;1.30;;;11.70;99.90;;;;;;5087499;28;20024;-68
2023/10/27 06:45:38;;;;;;;3.17;1.53;;;11.60;99.90;;;;;;5087449;28;20039;-66
2023/10/27 06:48:04;;;;;;;5.53;1.30;;;11.80;99.90;;;;;;5087376;28;20039;-67
2023/10/27 06:50:29;;;;;;;7.80;1.58;;;11.90;99.90;;;;;;5087594;28;20077;-67
2023/10/27 06:52:55;;;;;;;8.43;1.43;;;12.00;99.90;;;;;;5087763;28;20032;-71
2023/10/27 06:55:21;;;;;;;11.17;2.00;;;12.00;99.90;;;;;;5087384;28;20024;-72
2023/10/27 06:57:47;;;;;;;4.45;1.38;;;12.00;99.90;;;;;;5087543;28;20020;-69
2023/10/27 07:00:13;;;;;;;2.40;1.13;;;12.00;99.90;;;;;;5087685;28;20085;-69
2023/10/27 07:02:39;;;;;;;7.05;1.67;;;12.00;99.90;;;;;;5087308;28;20039;-72
2023/10/27 07:05:05;;;;;;;13.10;3.00;;;11.90;99.90;;;;;;5087714;28;20035;-70
2023/10/27 07:07:31;;;;;;;;;;;12.00;99.90;;;;;;5087839;28;20504;-71
2023/10/27 07:09:56;;;;;;;8.02;1.13;;;11.90;99.90;;;;;;5087786;28;19973;-71
2023/10/27 07:12:23;;;;;;;2.42;1.30;;;11.90;99.90;;;;;;5086340;28;20821;-71
2023/10/27 07:14:48;;;;;;;4.60;1.40;;;11.90;99.90;;;;;;5087618;28;20414;-72
2023/10/27 07:17:14;;;;;;;2.47;1.20;;;11.90;99.90;;;;;;5087603;28;20043;-68
2023/10/27 07:19:40;;;;;;;4.37;1.60;;;12.00;99.90;;;;;;5087206;28;20027;-67
2023/10/27 07:22:05;;;;;;;7.00;1.40;;;12.00;99.90;;;;;;5087237;28;20483;-68
2023/10/27 07:24:32;;;;;;;3.23;1.50;;;12.00;99.90;;;;;;5087272;28;20055;-68
2023/10/27 07:26:57;;;;;;;;;;;11.90;99.90;;;;;;5087680;28;20020;-67
2023/10/27 07:29:23;;;;;;;10.80;2.10;;;11.90;99.90;;;;;;5086809;28;20353;-68
2023/10/27 07:31:49;;;;;;;7.70;1.80;;;12.20;99.90;;;;;;5086392;28;20024;-67
2023/10/27 07:34:14;;;;;;;5.80;1.60;;;12.30;99.90;;;;;;5087097;28;20080;-67
2023/10/27 07:36:40;;;;;;;4.90;1.63;;;12.30;99.90;;;;;;5086891;28;20051;-68
2023/10/27 07:39:06;;;;;;;6.00;1.50;;;12.40;99.90;;;;;;5087097;28;20024;-68
2023/10/27 07:41:34;;;;;;;3.07;1.00;;;12.50;99.90;;;;;;5087003;28;20029;-66
2023/10/27 07:44:00;;;;;;;5.38;2.42;;;13.10;99.90;;;;;;5086015;28;20286;-67
2023/10/27 07:46:26;;;;;;;7.33;2.00;;;13.90;99.90;;;;;;5093051;28;20027;-67
2023/10/27 07:48:52;;;;;;;3.63;2.30;;;13.20;99.90;;;;;;5107205;28;20039;-67
2023/10/27 07:51:18;;;;;;;6.97;2.22;;;13.00;99.90;;;;;;5107723;28;20035;-67
2023/10/27 07:53:43;;;;;;;5.25;2.70;;;13.60;99.90;;;;;;5112100;28;20066;-66
2023/10/27 07:56:09;;;;;;;5.47;1.55;;;13.70;99.90;;;;;;5111815;28;20028;-67
2023/10/27 07:58:35;;;;;;;5.80;1.83;;;16.10;99.90;;;;;;5111482;28;20551;-67
2023/10/27 08:01:01;;;;;;;5.35;1.90;;;15.00;99.90;;;;;;5112002;28;20749;-66
2023/10/27 08:03:28;;;;;;;2.07;1.70;;;14.80;99.90;;;;;;5111234;28;20051;-67
2023/10/27 08:05:53;;;;;;;6.93;2.00;;;16.70;99.90;;;;;;5111017;28;20039;-69
2023/10/27 08:08:19;;;;;;;3.97;1.60;;;18.90;99.90;;;;;;5111179;28;20047;-67
2023/10/27 08:10:46;;;;;;;3.87;1.90;;;18.60;99.20;;;;;;5110851;28;20020;-68
2023/10/27 08:13:13;;;;;;;4.68;1.90;;;19.20;97.00;;;;;;5110889;28;20491;-67
2023/10/27 08:15:38;;;;;;;4.70;1.98;;;20.00;97.10;;;;;;5110755;28;20027;-67
2023/10/27 08:18:04;;;;;;;8.17;2.00;;;20.20;95.10;;;;;;5110510;28;20063;-67
2023/10/27 08:20:30;;;;;;;4.68;1.83;;;20.40;93.00;;;;;;5111119;28;20032;-69
2023/10/27 08:22:56;;;;;;;4.07;1.87;;;21.70;91.60;;;;;;5111281;28;20531;-69
2023/10/27 08:25:22;;;;;;;6.40;2.20;;;21.70;91.10;;;;;;5111048;28;20277;-67
2023/10/27 08:27:48;;;;;;;;;;;21.70;90.00;;;;;;5110904;28;20112;-68
2023/10/27 08:30:14;;;;;;;8.82;2.22;;;21.30;89.50;;;;;;5110395;28;19908;-67
2023/10/27 08:32:40;;;;;;;2.35;1.58;;;22.00;90.70;;;;;;5111024;28;20023;-68
2023/10/27 08:35:06;;;;;;;10.35;1.58;;;22.90;90.40;;;;;;5099211;28;20028;-68
2023/10/27 08:37:32;;;;;;;5.15;1.52;;;23.30;86.50;;;;;;5090368;28;20031;-70
2023/10/27 08:39:58;;;;;;;5.00;1.50;;;23.80;84.30;;;;;;5089661;28;20452;-70
2023/10/27 08:42:28;;;;;;;4.82;1.60;;;24.00;81.30;;;;;;5090079;28;20431;-71
2023/10/27 08:44:54;;;;;;;3.08;1.38;;;24.10;83.90;;;;;;5090354;28;20466;-70
2023/10/27 08:47:21;;;;;;;8.30;1.20;;;23.60;83.50;;;;;;5088706;28;20047;-68
2023/10/27 08:49:47;;;;;;;1.30;1.20;;;24.20;83.30;;;;;;5089880;28;20062;-71
2023/10/27 08:52:14;;;;;;;3.50;1.13;;;24.30;80.10;;;;;;5090107;28;20032;-71
2023/10/27 08:54:43;;;;;;;1.45;1.00;;;23.70;81.80;;;;;;5090083;28;20028;-67
2023/10/27 08:57:09;;;;;;;1.45;0.90;;;24.30;80.20;;;;;;5089720;28;20112;-69
2023/10/27 08:59:35;;;;;;;8.73;1.58;;;23.60;76.40;;;;;;5090319;28;20061;-70
2023/10/27 09:02:02;;;;;;;1.73;1.00;;;24.10;79.50;;;;;;5090140;28;20748;-71
2023/10/27 09:04:27;;;;;;;2.08;0.90;;;24.30;77.90;;;;;;5088697;28;20124;-72
2023/10/27 09:06:53;;;;;;;0.80;0.60;;;23.70;77.20;;;;;;5089786;28;20503;-71
2023/10/27 09:09:19;;;;;;;3.20;0.80;;;23.60;79.50;;;;;;5089934;28;20177;-71
2023/10/27 09:11:48;;;;;;;3.92;0.50;;;21.20;80.10;;;;;;5089887;28;20028;-71
2023/10/27 09:14:32;;;;;;;4.43;0.70;;;20.40;83.00;;;;;;5090166;28;20110;-68
2023/10/27 09:17:10;;;;;;;2.50;0.65;;;19.70;85.60;;;;;;5090265;28;20032;-71
2023/10/27 09:19:35;;;;;;;1.65;0.52;;;19.10;89.80;;;;;;5089958;28;20032;-69
2023/10/27 09:22:05;;;;;;;0.70;0.40;;;18.60;85.40;;;;;;5089959;28;20036;-69
2023/10/27 09:24:31;;;;;;;2.97;0.73;;;18.50;87.70;;;;;;5089304;28;20067;-67
2023/10/27 09:27:00;;;;;;;5.07;1.08;;;18.30;89.40;;;;;;5089426;28;20066;-67
2023/10/27 09:29:31;;;;;;;2.13;0.68;;;18.40;90.10;;;;;;5089404;28;20035;-71
2023/10/27 09:31:57;;;;;;;1.50;0.52;;;18.30;89.00;;;;;;5089289;28;20032;-67
2023/10/27 09:34:26;;;;;;;;;;;18.00;90.00;;;;;;5089243;28;20024;-70
2023/10/27 09:36:53;;;;;;;0.95;0.52;;;17.80;90.50;;;;;;5089098;28;19946;-68
2023/10/27 09:39:22;;;;;;;1.70;0.57;;;17.50;91.10;;;;;;5088754;28;20043;-67
2023/10/27 09:41:56;;;;;;;2.10;0.88;;;17.60;91.40;;;;;;5088339;28;20523;-68
2023/10/27 09:44:33;;;;;;;4.32;0.63;;;17.50;92.60;;;;;;5088872;28;20143;-68
2023/10/27 09:47:04;;;;;;;2.53;0.80;;;17.30;90.50;;;;;;5088864;28;20081;-68
2023/10/27 09:49:35;;;;;;;6.32;0.50;;;17.30;93.10;;;;;;5087982;28;20027;-68
2023/10/27 09:52:04;;;;;;;2.35;0.70;;;17.20;91.20;;;;;;5103468;28;20110;-68
2023/10/27 09:54:33;;;;;;;4.97;0.55;;;17.00;91.10;;;;;;5109475;28;20475;-67
2023/10/27 09:57:04;;;;;;;5.53;0.95;;;17.00;91.20;;;;;;5109452;28;20027;-67
2023/10/27 09:59:30;;;;;;;1.77;0.80;;;17.00;93.20;;;;;;5108126;28;20039;-66
2023/10/27 10:02:04;;;;;;;1.52;0.70;;;16.90;91.30;;;;;;5108142;28;20031;-68
2023/10/27 10:04:52;;;;;;;1.70;0.68;;;17.00;92.60;;;;;;5109039;28;20039;-70
2023/10/27 10:07:27;;;;;;;;;;;16.90;92.30;;;;;;5109597;28;20077;-71
2023/10/27 10:09:52;;;;;;;1.98;0.50;;;16.80;92.00;;;;;;5108742;28;19908;-70
2023/10/27 10:12:18;;;;;;;2.60;0.93;;;16.70;91.20;;;;;;5108597;28;20548;-70
2023/10/27 10:14:45;;;;;;;3.50;0.77;;;16.60;91.40;;;;;;5108253;28;20531;-69
2023/10/27 10:17:11;;;;;;;1.27;0.55;;;16.50;91.40;;;;;;5106787;28;20405;-70
2023/10/27 10:19:50;;;;;;;1.47;0.67;;;16.50;91.20;;;;;;5108109;28;20032;-70
2023/10/27 10:22:40;;;;;;;3.65;0.70;;;16.40;91.00;;;;;;5108493;28;20024;-70
2023/10/27 10:25:15;;;;;;;2.80;0.70;;;16.50;92.00;;;;;;5108278;28;20035;-70
2023/10/27 10:28:06;;;;;;;7.68;0.73;;;16.40;92.50;;;;;;5090460;28;20123;-70
2023/10/27 10:30:32;;;;;;;2.13;0.70;;;16.50;93.80;;;;;;5067680;28;20047;-69
2023/10/27 10:33:16;;;;;;;4.15;1.10;;;16.30;91.70;;;;;;5088236;28;20271;-70
2023/10/27 10:35:48;;;;;;;5.25;0.77;;;16.40;93.50;;;;;;5086606;28;20512;-69
2023/10/27 10:38:23;;;;;;;2.15;0.57;;;16.50;94.40;;;;;;5086790;28;20040;-69
2023/10/27 10:40:53;;;;;;;0.95;0.50;;;16.50;93.20;;;;;;5087379;28;20047;-69
2023/10/27 10:43:37;;;;;;;2.40;0.57;;;16.50;94.70;;;;;;5088035;28;20027;-69
2023/10/27 10:46:10;;;;;;;1.30;0.75;;;16.50;91.10;;;;;;5087874;28;20032;-70
2023/10/27 10:48:39;;;;;;;2.03;0.57;;;16.50;92.40;;;;;;5088096;28;20051;-67
2023/10/27 10:51:18;;;;;;;4.65;0.90;;;16.60;93.00;;;;;;5087629;28;20373;-67
2023/10/27 10:53:50;;;;;;;3.90;0.60;;;16.60;92.50;;;;;;5087673;28;20029;-66
2023/10/27 10:56:16;;;;;;;5.95;0.50;;;16.70;94.60;;;;;;5087287;28;20045;-67
2023/10/27 10:58:42;;;;;;;2.83;0.68;;;16.60;91.50;;;;;;5087464;28;20035;-67
2023/10/27 11:01:16;;;;;;;1.13;0.50;;;16.50;90.30;;;;;;5085917;28;20683;-67
2023/10/27 11:03:47;;;;;;;0.85;0.60;;;16.50;89.80;;;;;;5087474;28;20036;-67
2023/10/27 11:06:12;;;;;;;2.35;0.50;;;16.40;90.70;;;;;;5087426;28;20039;-67
2023/10/27 11:08:39;;;;;;;4.90;0.40;;;16.50;90.30;;;;;;5087687;28;20036;-67
2023/10/27 11:11:13;;;;;;;2.17;0.68;;;16.50;91.90;;;;;;5087409;28;20032;-68
2023/10/27 11:13:40;;;;;;;3.92;0.70;;;16.60;92.10;;;;;;5086104;28;20032;-70
2023/10/27 11:16:36;;;;;;;2.47;0.55;;;16.60;91.80;;;;;;5087641;28;20408;-70
2023/10/27 11:19:02;;;;;;;1.30;0.50;;;16.80;92.00;;;;;;5078526;28;20071;-70
2023/10/27 11:21:29;;;;;;;1.03;0.40;;;16.90;89.60;;;;;;5087296;28;20476;-70
2023/10/27 11:23:55;;;;;;;1.45;0.50;;;16.80;88.80;;;;;;5087093;28;20797;-68
2023/10/27 11:26:23;;;;;;;2.72;0.50;;;16.90;90.30;;;;;;5086616;28;20632;-68
2023/10/27 11:28:49;;;;;;;1.73;0.50;;;16.80;87.40;;;;;;5087034;28;20042;-69
2023/10/27 11:31:21;;;;;;;0.93;0.50;;;16.80;86.80;;;;;;5087044;28;20059;-66
2023/10/27 11:34:11;;;;;;;5.00;0.77;;;16.60;87.80;;;;;;5086809;28;20050;-67
2023/10/27 11:36:56;;;;;;;2.35;0.60;;;16.70;86.30;;;;;;5087254;28;20027;-71
2023/10/27 11:39:23;;;;;;;4.90;1.17;;;16.70;89.60;;;;;;5086880;28;20039;-67
2023/10/27 11:41:59;;;;;;;6.35;0.75;;;16.60;92.70;;;;;;5087105;28;20031;-69
2023/10/27 11:44:25;;;;;;;3.05;0.60;;;16.70;90.30;;;;;;5086549;28;20043;-68
2023/10/27 11:46:56;;;;;;;;;;;16.70;89.60;;;;;;5086936;28;20028;-67
2023/10/27 11:49:22;;;;;;;0.90;0.70;;;16.60;88.90;;;;;;5086865;28;19908;-68
2023/10/27 11:51:51;;;;;;;3.47;0.70;;;16.50;91.20;;;;;;5086613;28;20027;-70
2023/10/27 11:54:17;;;;;;;1.10;0.50;;;16.50;91.30;;;;;;5086627;28;20043;-70
2023/10/27 11:56:44;;;;;;;4.97;0.70;;;16.40;90.60;;;;;;5100664;28;20106;-70
2023/10/27 11:59:10;;;;;;;;;;;16.30;92.00;;;;;;5107854;28;20506;-70
2023/10/27 12:01:39;;;;;;;2.33;0.70;;;16.40;91.40;;;;;;5107355;28;19908;-69
2023/10/27 12:04:12;;;;;;;2.78;0.70;;;16.50;91.60;;;;;;5106879;28;20027;-67
2023/10/27 12:06:42;;;;;;;4.80;0.80;;;16.50;91.70;;;;;;5107458;28;20035;-67
2023/10/27 12:09:09;;;;;;;1.88;0.65;;;16.60;91.80;;;;;;5107228;28;20024;-67
2023/10/27 12:11:35;;;;;;;4.78;0.55;;;16.60;90.80;;;;;;5107461;28;20027;-69
2023/10/27 12:14:01;;;;;;;3.08;0.93;;;16.70;90.80;;;;;;5107292;28;20106;-69
2023/10/27 12:16:29;;;;;;;1.57;0.90;;;16.70;88.40;;;;;;5107082;28;20107;-70
2023/10/27 12:18:56;;;;;;;4.75;0.82;;;16.70;88.80;;;;;;5107283;28;20036;-70
2023/10/27 12:21:26;;;;;;;7.70;1.13;;;16.80;90.30;;;;;;5102805;28;20101;-66
2023/10/27 12:23:53;;;;;;;1.98;0.77;;;16.80;90.80;;;;;;5086543;28;20036;-67
2023/10/27 12:26:20;;;;;;;;;;;16.70;89.70;;;;;;5086726;28;20072;-69
2023/10/27 12:28:46;;;;;;;2.03;0.60;;;16.70;87.40;;;;;;5086442;28;20363;-67
2023/10/27 12:31:13;;;;;;;4.60;0.85;;;16.70;87.90;;;;;;5086552;28;20028;-69
2023/10/27 12:33:39;;;;;;;4.88;1.70;;;16.80;90.20;;;;;;5085387;28;20036;-70
2023/10/27 12:36:06;;;;;;;2.03;0.80;;;16.80;90.60;;;;;;5086289;28;20016;-66
2023/10/27 12:38:32;;;;;;;1.75;0.70;;;16.80;90.20;;;;;;5088661;28;20641;-67
2023/10/27 12:40:57;;;;;;;2.20;1.00;;;16.80;88.30;;;;;;5090050;28;20106;-68
2023/10/27 12:43:23;;;;;;;1.70;1.13;;;16.80;88.40;;;;;;5090135;28;20549;-70
2023/10/27 12:45:49;;;;;;;2.40;0.63;;;16.70;89.90;;;;;;5082536;28;20032;-67
2023/10/27 12:48:14;;;;;;;1.27;0.60;;;16.70;88.70;;;;;;5069293;28;20094;-68